createdAt,value
2022-10-11T00:02:04.391Z,19.10
2022-10-11T00:04:30.902Z,19.17
2022-10-11T00:06:57.439Z,19.58
2022-10-11T00:09:24.156Z,19.25
2022-10-11T00:11:50.742Z,15.30
2022-10-11T00:14:17.307Z,16.88
2022-10-11T00:16:44.583Z,20.38
2022-10-11T00:19:11.531Z,13.85
2022-10-11T00:21:38.105Z,19.40
2022-10-11T00:24:05.118Z,15.48
2022-10-11T00:26:31.666Z,14.52
2022-10-11T00:28:58.298Z,19.60
2022-10-11T00:31:25.129Z,18.75
2022-10-11T00:33:53.947Z,22.63
2022-10-11T00:36:21.162Z,17.92
2022-10-11T00:38:47.851Z,16.75
2022-10-11T00:41:15.799Z,18.35
2022-10-11T00:43:42.464Z,17.75
2022-10-11T00:46:18.193Z,16.55
2022-10-11T00:48:50.735Z,16.65
2022-10-11T00:51:34.222Z,15.45
2022-10-11T00:54:02.156Z,15.95
2022-10-11T00:56:36.038Z,16.05
2022-10-11T00:59:06.164Z,19.73
2022-10-11T01:01:33.025Z,21.60
2022-10-11T01:04:00.588Z,17.30
2022-10-11T01:06:27.360Z,18.35
2022-10-11T01:08:56.704Z,15.27
2022-10-11T01:11:27.125Z,21.88
2022-10-11T01:14:10.886Z,20.02
2022-10-11T01:17:01.585Z,21.98
2022-10-11T01:19:40.255Z,22.40
2022-10-11T01:22:43.620Z,20.23
2022-10-11T01:25:41.077Z,18.67
2022-10-11T01:28:16.491Z,21.80
2022-10-11T01:30:43.896Z,27.05
2022-10-11T01:33:22.183Z,20.90
2022-10-11T01:36:13.814Z,18.25
2022-10-11T01:38:50.119Z,19.30
2022-10-11T01:41:21.499Z,19.45
2022-10-11T01:43:51.924Z,19.00
2022-10-11T01:46:19.996Z,18.25
2022-10-11T01:48:55.561Z,15.30
2022-10-11T01:51:25.678Z,26.77
2022-10-11T01:54:05.139Z,14.73
2022-10-11T01:56:34.435Z,14.85
2022-10-11T01:59:30.252Z,23.35
2022-10-11T02:02:18.458Z,14.27
2022-10-11T02:04:52.818Z,16.92
2022-10-11T02:07:26.417Z,19.20
2022-10-11T02:12:41.472Z,15.00
2022-10-11T02:15:09.800Z,16.77
2022-10-11T02:17:41.260Z,16.05
2022-10-11T02:20:14.345Z,16.92
2022-10-11T02:22:45.192Z,19.33
2022-10-11T02:25:17.808Z,20.35
2022-10-11T02:27:47.119Z,18.42
2022-10-11T02:30:15.186Z,20.33
2022-10-11T02:32:44.512Z,16.88
2022-10-11T02:35:12.003Z,20.20
2022-10-11T02:37:44.475Z,17.77
2022-10-11T02:40:35.667Z,16.45
2022-10-11T02:43:07.939Z,20.10
2022-10-11T02:45:37.223Z,21.75
2022-10-11T02:48:05.311Z,21.88
2022-10-11T02:50:34.563Z,20.70
2022-10-11T02:53:01.163Z,20.13
2022-10-11T02:55:27.755Z,22.23
2022-10-11T02:57:54.279Z,19.80
2022-10-11T03:00:20.907Z,18.92
2022-10-11T03:02:47.555Z,15.52
2022-10-11T03:05:14.167Z,14.82
2022-10-11T03:07:40.801Z,19.88
2022-10-11T03:10:08.272Z,16.02
2022-10-11T03:12:34.889Z,17.00
2022-10-11T03:15:01.647Z,20.70
2022-10-11T03:17:36.582Z,19.95
2022-10-11T03:20:05.459Z,18.73
2022-10-11T03:22:32.236Z,20.23
2022-10-11T03:25:03.649Z,18.92
2022-10-11T03:27:31.219Z,14.05
2022-10-11T03:29:57.881Z,17.75
2022-10-11T03:32:25.130Z,18.70
2022-10-11T03:34:51.709Z,17.08
2022-10-11T03:37:18.929Z,18.63
2022-10-11T03:39:45.907Z,15.90
2022-10-11T03:42:13.708Z,15.80
2022-10-11T03:44:42.055Z,17.83
2022-10-11T03:47:09.329Z,17.45
2022-10-11T03:49:39.892Z,18.42
2022-10-11T03:52:09.215Z,15.02
2022-10-11T03:54:35.739Z,16.52
2022-10-11T03:57:02.339Z,14.60
2022-10-11T03:59:28.953Z,13.80
2022-10-11T04:01:55.578Z,16.52
2022-10-11T04:04:22.190Z,17.40
2022-10-11T04:06:48.730Z,22.02
2022-10-11T04:09:15.419Z,15.05
2022-10-11T04:11:41.977Z,17.35
2022-10-11T04:14:08.523Z,15.63
2022-10-11T04:16:35.374Z,20.90
2022-10-11T04:19:01.907Z,14.55
2022-10-11T04:21:30.709Z,17.15
2022-10-11T04:23:57.242Z,16.08
2022-10-11T04:26:23.811Z,15.25
2022-10-11T04:28:50.430Z,20.48
2022-10-11T04:31:17.068Z,16.65
2022-10-11T04:33:43.601Z,17.90
2022-10-11T04:36:10.423Z,17.52
2022-10-11T04:38:36.921Z,17.38
2022-10-11T04:41:14.902Z,16.55
2022-10-11T04:43:41.795Z,17.23
2022-10-11T04:46:09.779Z,20.52
2022-10-11T04:48:36.955Z,15.85
2022-10-11T04:51:03.787Z,19.98
2022-10-11T04:53:30.323Z,15.05
2022-10-11T04:56:02.398Z,21.98
2022-10-11T04:58:30.496Z,22.02
2022-10-11T05:00:57.471Z,14.70
2022-10-11T05:03:24.586Z,18.05
2022-10-11T05:05:51.257Z,17.48
2022-10-11T05:08:17.833Z,21.10
2022-10-11T05:10:55.086Z,19.40
2022-10-11T05:13:21.784Z,19.05
2022-10-11T05:15:48.754Z,18.27
2022-10-11T05:18:15.354Z,14.07
2022-10-11T05:20:41.866Z,15.30
2022-10-11T05:23:08.584Z,14.57
2022-10-11T05:25:35.357Z,18.23
2022-10-11T05:28:01.920Z,20.42
2022-10-11T05:30:28.476Z,19.85
2022-10-11T05:32:55.091Z,15.65
2022-10-11T05:35:21.689Z,17.60
2022-10-11T05:37:48.213Z,17.45
2022-10-11T05:40:14.779Z,19.05
2022-10-11T05:42:41.361Z,18.08
2022-10-11T05:45:08.272Z,17.75
2022-10-11T05:47:34.797Z,15.93
2022-10-11T05:50:01.374Z,16.85
2022-10-11T05:52:28.376Z,16.38
2022-10-11T05:54:54.997Z,17.50
2022-10-11T05:57:21.577Z,18.48
2022-10-11T05:59:48.113Z,17.55
2022-10-11T06:02:14.647Z,17.45
2022-10-11T06:04:41.214Z,22.58
2022-10-11T06:07:07.801Z,17.92
2022-10-11T06:09:34.935Z,19.42
2022-10-11T06:12:01.683Z,26.13
2022-10-11T06:14:28.304Z,23.02
2022-10-11T06:16:54.924Z,19.05
2022-10-11T06:19:21.545Z,25.20
2022-10-11T06:21:48.476Z,19.77
2022-10-11T06:24:15.684Z,23.15
2022-10-11T06:26:42.231Z,23.20
2022-10-11T06:29:09.514Z,18.50
2022-10-11T06:31:36.076Z,17.15
2022-10-11T06:34:02.630Z,18.48
2022-10-11T06:36:31.985Z,19.73
2022-10-11T06:39:01.361Z,16.67
2022-10-11T06:41:29.567Z,19.65
2022-10-11T06:43:57.326Z,18.70
2022-10-11T06:46:26.612Z,20.40
2022-10-11T06:48:54.126Z,18.38
2022-10-11T06:51:24.325Z,19.65
2022-10-11T06:53:55.849Z,16.40
2022-10-11T06:56:22.643Z,19.52
2022-10-11T06:58:51.016Z,13.43
2022-10-11T07:01:20.017Z,16.15
2022-10-11T07:03:47.604Z,17.40
2022-10-11T07:06:17.248Z,16.17
2022-10-11T07:08:44.056Z,18.50
2022-10-11T07:11:13.098Z,17.38
2022-10-11T07:13:40.147Z,14.77
2022-10-11T07:16:10.475Z,15.63
2022-10-11T07:18:37.954Z,18.85
2022-10-11T07:21:07.131Z,20.98
2022-10-11T07:23:33.761Z,21.48
2022-10-11T07:26:00.461Z,22.35
2022-10-11T07:28:28.761Z,18.13
2022-10-11T07:30:55.444Z,19.42
2022-10-11T07:33:22.048Z,24.92
2022-10-11T07:35:49.595Z,23.35
2022-10-11T07:38:17.118Z,20.65
2022-10-11T07:40:45.889Z,25.88
2022-10-11T07:43:13.391Z,27.13
2022-10-11T07:45:45.501Z,32.47
2022-10-11T07:48:12.041Z,25.23
2022-10-11T07:50:38.706Z,22.48
2022-10-11T07:53:05.243Z,30.77
2022-10-11T07:55:40.100Z,23.20
2022-10-11T07:58:11.934Z,31.55
2022-10-11T08:00:40.085Z,26.15
2022-10-11T08:03:06.911Z,24.67
2022-10-11T08:05:34.231Z,29.20
2022-10-11T08:08:00.750Z,26.83
2022-10-11T08:10:27.717Z,25.60
2022-10-11T08:12:54.270Z,23.10
2022-10-11T08:15:21.191Z,26.63
2022-10-11T08:17:47.958Z,25.58
2022-10-11T08:20:14.609Z,27.40
2022-10-11T08:22:41.139Z,22.55
2022-10-11T08:25:08.081Z,22.75
2022-10-11T08:27:34.644Z,24.73
2022-10-11T08:30:01.275Z,23.02
2022-10-11T08:32:29.320Z,27.52
2022-10-11T08:34:56.815Z,21.38
2022-10-11T08:37:23.383Z,27.67
2022-10-11T08:39:50.122Z,23.95
2022-10-11T08:42:35.959Z,24.42
2022-10-11T08:45:16.853Z,17.73
2022-10-11T08:47:45.158Z,23.80
2022-10-11T08:50:19.816Z,22.30
2022-10-11T08:53:10.975Z,17.40
2022-10-11T08:55:40.245Z,18.20
2022-10-11T08:58:06.928Z,20.55
2022-10-11T09:00:38.200Z,19.40
2022-10-11T09:03:33.894Z,21.33
2022-10-11T09:06:16.257Z,16.33
2022-10-11T09:09:13.460Z,21.85
2022-10-11T09:11:48.741Z,16.15
2022-10-11T09:14:34.123Z,21.67
2022-10-11T09:17:08.450Z,19.40
2022-10-11T09:19:41.076Z,21.15
2022-10-11T09:22:30.882Z,18.43
2022-10-11T09:25:03.861Z,17.60
2022-10-11T09:28:01.729Z,18.35
2022-10-11T09:30:27.958Z,17.67
2022-10-11T09:33:17.279Z,22.13
2022-10-11T09:35:51.706Z,17.80
2022-10-11T09:38:27.968Z,14.38
2022-10-11T09:41:06.148Z,16.00
2022-10-11T09:43:32.834Z,15.30
2022-10-11T09:45:59.376Z,17.50
2022-10-11T09:48:37.504Z,16.63
2022-10-11T09:51:16.544Z,13.60
2022-10-11T09:53:52.543Z,17.88
2022-10-11T09:56:19.308Z,16.27
2022-10-11T09:58:46.178Z,16.10
2022-10-11T10:01:23.130Z,15.90
2022-10-11T10:04:05.300Z,14.95
2022-10-11T10:06:31.912Z,13.95
2022-10-11T10:09:27.955Z,16.83
2022-10-11T10:11:55.972Z,36.45
2022-10-11T10:14:28.927Z,17.13
2022-10-11T10:17:08.612Z,21.52
2022-10-11T10:19:51.836Z,15.80
2022-10-11T10:22:25.512Z,19.58
2022-10-11T10:24:52.920Z,18.38
2022-10-11T10:27:30.563Z,17.02
2022-10-11T10:30:09.175Z,16.45
2022-10-11T10:32:57.260Z,14.90
2022-10-11T10:35:41.253Z,21.13
2022-10-11T10:38:27.931Z,16.23
2022-10-11T10:41:11.293Z,14.35
2022-10-11T10:43:39.952Z,19.08
2022-10-11T10:46:48.528Z,16.55
2022-10-11T10:49:55.088Z,18.92
2022-10-11T10:52:40.400Z,21.45
2022-10-11T10:55:25.649Z,15.65
2022-10-11T10:58:07.208Z,20.42
2022-10-11T11:00:45.549Z,18.15
2022-10-11T11:03:27.902Z,16.10
2022-10-11T11:06:34.149Z,13.82
2022-10-11T11:09:21.426Z,16.38
2022-10-11T11:12:00.606Z,18.48
2022-10-11T11:15:15.051Z,15.10
2022-10-11T11:17:58.984Z,15.70
2022-10-11T11:20:40.630Z,16.83
2022-10-11T11:23:23.668Z,17.40
2022-10-11T11:26:04.875Z,18.65
2022-10-11T11:28:42.029Z,19.00
2022-10-11T11:31:11.719Z,23.20
2022-10-11T11:33:48.934Z,21.08
2022-10-11T11:36:23.471Z,21.75
2022-10-11T11:38:58.345Z,17.05
2022-10-11T11:41:34.590Z,15.15
2022-10-11T11:44:06.892Z,17.95
2022-10-11T11:46:50.967Z,20.02
2022-10-11T11:49:23.616Z,16.05
2022-10-11T11:51:51.701Z,20.07
2022-10-11T11:54:32.633Z,18.98
2022-10-11T11:57:23.666Z,13.13
2022-10-11T12:00:13.896Z,16.27
2022-10-11T12:03:01.803Z,18.52
2022-10-11T12:05:33.934Z,15.70
2022-10-11T12:08:04.417Z,17.75
2022-10-11T12:10:36.258Z,15.00
2022-10-11T12:13:15.263Z,19.27
2022-10-11T12:15:56.139Z,16.85
2022-10-11T12:18:22.950Z,18.48
2022-10-11T12:21:06.124Z,22.10
2022-10-11T12:23:42.975Z,17.67
2022-10-11T12:26:27.773Z,24.23
2022-10-11T12:29:18.680Z,18.52
2022-10-11T12:32:30.823Z,16.50
2022-10-11T12:35:37.838Z,13.43
2022-10-11T12:38:33.956Z,12.63
2022-10-11T12:41:06.460Z,18.15
2022-10-11T12:43:36.312Z,12.20
2022-10-11T12:46:27.985Z,13.63
2022-10-11T12:49:27.060Z,15.25
2022-10-11T12:52:04.468Z,13.32
2022-10-11T12:55:10.316Z,11.55
2022-10-11T12:57:55.246Z,14.18
2022-10-11T13:00:41.594Z,14.70
2022-10-11T13:03:32.775Z,13.35
2022-10-11T13:06:01.844Z,14.23
2022-10-11T13:08:37.046Z,13.70
2022-10-11T13:11:10.224Z,12.48
2022-10-11T13:13:43.908Z,16.63
2022-10-11T13:16:18.550Z,16.23
2022-10-11T13:18:48.388Z,11.27
2022-10-11T13:21:24.137Z,14.43
2022-10-11T13:23:55.616Z,14.52
2022-10-11T13:26:24.523Z,10.80
2022-10-11T13:28:51.259Z,10.45
2022-10-11T13:31:17.951Z,13.23
2022-10-11T13:33:45.818Z,10.77
2022-10-11T13:36:17.627Z,10.27
2022-10-11T13:38:53.799Z,9.20
2022-10-11T13:41:21.658Z,12.45
2022-10-11T13:43:48.806Z,12.65
2022-10-11T13:46:21.838Z,12.23
2022-10-11T13:48:59.621Z,12.25
2022-10-11T13:51:32.460Z,11.65
2022-10-11T13:54:10.565Z,9.00
2022-10-11T13:56:47.787Z,10.82
2022-10-11T13:59:20.170Z,16.23
2022-10-11T14:01:47.647Z,12.57
2022-10-11T14:04:17.143Z,13.57
2022-10-11T14:07:02.558Z,14.27
2022-10-11T14:09:32.194Z,13.02
2022-10-11T14:12:39.651Z,13.13
2022-10-11T14:15:35.676Z,12.27
2022-10-11T14:18:31.726Z,13.25
2022-10-11T14:20:58.434Z,11.52
2022-10-11T14:23:25.595Z,13.80
2022-10-11T14:25:53.474Z,12.00
2022-10-11T14:28:20.115Z,15.13
2022-10-11T14:30:49.448Z,14.88
2022-10-11T14:33:16.035Z,12.70
2022-10-11T14:35:43.331Z,11.32
2022-10-11T14:38:11.859Z,12.15
2022-10-11T14:40:38.441Z,11.02
2022-10-11T14:43:04.962Z,16.20
2022-10-11T14:45:31.507Z,11.32
2022-10-11T14:47:58.199Z,10.23
2022-10-11T14:50:30.748Z,13.60
2022-10-11T14:52:57.445Z,15.65
2022-10-11T14:55:24.646Z,16.70
2022-10-11T14:57:51.494Z,15.57
2022-10-11T15:00:22.955Z,11.88
2022-10-11T15:02:50.771Z,13.30
2022-10-11T15:05:17.546Z,10.70
2022-10-11T15:07:44.097Z,13.05
2022-10-11T15:10:26.622Z,12.70
2022-10-11T15:12:54.801Z,10.90
2022-10-11T15:15:24.495Z,12.90
2022-10-11T15:17:55.484Z,9.93
2022-10-11T15:20:30.210Z,12.48
2022-10-11T15:22:57.844Z,10.60
2022-10-11T15:25:25.177Z,10.32
2022-10-11T15:27:52.145Z,10.73
2022-10-11T15:30:22.815Z,13.68
2022-10-11T15:32:50.075Z,13.38
2022-10-11T15:35:17.864Z,12.35
2022-10-11T15:37:45.154Z,13.00
2022-10-11T15:40:20.592Z,10.48
2022-10-11T15:42:48.213Z,10.75
2022-10-11T15:45:15.874Z,12.27
2022-10-11T15:47:42.753Z,13.02
2022-10-11T15:50:34.875Z,9.23
2022-10-11T15:53:07.675Z,10.02
2022-10-11T15:55:38.620Z,14.90
2022-10-11T15:58:06.097Z,15.57
2022-10-11T16:00:32.822Z,14.52
2022-10-11T16:02:59.901Z,16.52
2022-10-11T16:05:28.298Z,13.60
2022-10-11T16:07:55.139Z,19.67
2022-10-11T16:10:22.168Z,17.67
2022-10-11T16:12:49.069Z,16.50
2022-10-11T16:15:15.999Z,17.05
2022-10-11T16:17:42.551Z,14.05
2022-10-11T16:20:09.480Z,17.38
2022-10-11T16:22:36.561Z,17.27
2022-10-11T16:25:04.564Z,18.73
2022-10-11T16:27:32.266Z,17.35
2022-10-11T16:30:00.028Z,17.27
2022-10-11T16:32:28.061Z,16.20
2022-10-11T16:34:54.760Z,15.35
2022-10-11T16:37:21.283Z,16.48
2022-10-11T16:39:48.010Z,19.80
2022-10-11T16:42:14.652Z,23.83
2022-10-11T16:44:41.194Z,19.17
2022-10-11T16:47:07.844Z,21.92
2022-10-11T16:49:34.696Z,19.90
2022-10-11T16:52:03.839Z,19.65
2022-10-11T16:54:31.730Z,20.70
2022-10-11T16:57:00.556Z,19.38
2022-10-11T16:59:27.644Z,23.02
2022-10-11T17:01:55.112Z,23.83
2022-10-11T17:04:22.375Z,21.88
2022-10-11T17:06:49.698Z,21.63
2022-10-11T17:09:16.348Z,34.58
2022-10-11T17:11:43.606Z,40.30
2022-10-11T17:14:11.760Z,32.55
2022-10-11T17:16:38.582Z,30.67
2022-10-11T17:19:05.309Z,22.83
2022-10-11T17:21:32.003Z,17.77
2022-10-11T17:23:58.659Z,20.55
2022-10-11T17:26:26.586Z,25.70
2022-10-11T17:28:58.083Z,23.00
2022-10-11T17:31:25.344Z,24.05
2022-10-11T17:33:53.215Z,27.58
2022-10-11T17:36:24.083Z,28.00
2022-10-11T17:38:52.064Z,25.77
2022-10-11T17:41:19.453Z,23.50
2022-10-11T17:43:46.811Z,25.00
2022-10-11T17:46:15.756Z,31.77
2022-10-11T17:48:42.525Z,36.65
2022-10-11T17:51:12.253Z,31.63
2022-10-11T17:53:39.242Z,29.60
2022-10-11T17:56:10.887Z,26.42
2022-10-11T17:58:38.543Z,27.08
2022-10-11T18:01:08.467Z,24.63
2022-10-11T18:03:35.368Z,29.33
2022-10-11T18:06:04.204Z,25.02
2022-10-11T18:08:30.717Z,30.48
2022-10-11T18:10:57.589Z,31.85
2022-10-11T18:13:24.244Z,24.02
2022-10-11T18:16:04.686Z,26.70
2022-10-11T18:18:31.251Z,29.00
2022-10-11T18:20:57.929Z,26.23
2022-10-11T18:23:24.479Z,25.35
2022-10-11T18:25:51.052Z,24.95
2022-10-11T18:28:17.950Z,24.83
2022-10-11T18:30:46.536Z,27.90
2022-10-11T18:33:14.459Z,26.10
2022-10-11T18:35:41.223Z,24.52
2022-10-11T18:38:08.716Z,23.77
2022-10-11T18:40:43.426Z,26.33
2022-10-11T18:43:12.801Z,24.85
2022-10-11T18:45:39.351Z,24.42
2022-10-11T18:48:06.143Z,26.10
2022-10-11T18:50:35.432Z,29.83
2022-10-11T18:53:02.197Z,24.05
2022-10-11T18:55:28.852Z,32.15
2022-10-11T18:57:55.415Z,28.02
2022-10-11T19:00:41.886Z,41.75
2022-10-11T19:03:08.504Z,37.70
2022-10-11T19:05:39.351Z,29.77
2022-10-11T19:08:06.041Z,33.70
2022-10-11T19:10:34.028Z,40.92
2022-10-11T19:13:00.577Z,31.92
2022-10-11T19:15:28.957Z,26.73
2022-10-11T19:17:55.865Z,29.67
2022-10-11T19:20:22.498Z,22.48
2022-10-11T19:22:49.070Z,25.98
2022-10-11T19:25:15.724Z,22.15
2022-10-11T19:27:42.463Z,21.65
2022-10-11T19:30:10.868Z,22.98
2022-10-11T19:32:37.353Z,22.55
2022-10-11T19:35:04.349Z,23.73
2022-10-11T19:37:31.185Z,25.50
2022-10-11T19:39:58.008Z,24.52
2022-10-11T19:42:24.628Z,27.98
2022-10-11T19:44:51.177Z,30.23
2022-10-11T19:47:17.730Z,27.45
2022-10-11T19:49:44.290Z,23.58
2022-10-11T19:52:13.223Z,28.02
2022-10-11T19:54:39.988Z,24.33
2022-10-11T19:57:08.725Z,24.27
2022-10-11T19:59:35.295Z,25.63
2022-10-11T20:02:01.864Z,21.25
2022-10-11T20:07:14.994Z,21.40
2022-10-11T20:09:41.568Z,23.45
2022-10-11T20:12:08.538Z,22.50
2022-10-11T20:14:35.242Z,24.58
2022-10-11T20:17:01.759Z,27.75
2022-10-11T20:19:31.307Z,26.10
2022-10-11T20:21:58.955Z,24.40
2022-10-11T20:24:27.557Z,23.67
2022-10-11T20:26:54.943Z,24.27
2022-10-11T20:29:24.146Z,20.45
2022-10-11T20:31:51.087Z,24.23
2022-10-11T20:34:17.622Z,26.20
2022-10-11T20:36:48.897Z,25.55
2022-10-11T20:39:16.106Z,23.80
2022-10-11T20:41:43.711Z,30.67
2022-10-11T20:44:12.409Z,27.38
2022-10-11T20:46:39.395Z,26.23
2022-10-11T20:49:11.315Z,27.63
2022-10-11T20:51:41.478Z,27.83
2022-10-11T20:54:08.827Z,28.17
2022-10-11T20:56:37.043Z,30.77
2022-10-11T20:59:03.890Z,28.65
2022-10-11T21:01:37.250Z,28.55
2022-10-11T21:04:04.693Z,26.70
2022-10-11T21:06:32.860Z,26.92
2022-10-11T21:09:00.063Z,21.45
2022-10-11T21:11:33.592Z,27.85
2022-10-11T21:16:28.261Z,28.85
2022-10-11T21:18:56.463Z,21.20
2022-10-11T21:21:24.040Z,30.65
2022-10-11T21:23:54.419Z,23.08
2022-10-11T21:26:22.055Z,28.75
2022-10-11T21:28:48.691Z,22.70
2022-10-11T21:31:18.215Z,25.02
2022-10-11T21:33:45.059Z,23.88
2022-10-11T21:36:17.589Z,27.95
2022-10-11T21:38:44.145Z,24.60
2022-10-11T21:41:21.704Z,27.95
2022-10-11T21:43:48.817Z,27.85
2022-10-11T21:46:41.695Z,34.47
2022-10-11T21:49:12.407Z,24.80
2022-10-11T21:51:39.043Z,26.33
2022-10-11T21:54:05.790Z,22.35
2022-10-11T21:56:32.409Z,28.80
2022-10-11T21:58:58.986Z,24.92
2022-10-11T22:01:25.669Z,32.50
2022-10-11T22:03:55.124Z,27.48
2022-10-11T22:06:22.318Z,29.42
2022-10-11T22:08:50.077Z,26.13
2022-10-11T22:11:17.522Z,28.58
2022-10-11T22:13:44.139Z,27.67
2022-10-11T22:16:12.511Z,32.53
2022-10-11T22:18:39.878Z,29.88
2022-10-11T22:21:09.722Z,28.33
2022-10-11T22:23:36.619Z,32.75
2022-10-11T22:26:08.884Z,31.05
2022-10-11T22:28:36.343Z,35.25
2022-10-11T22:31:04.973Z,27.52
2022-10-11T22:33:31.702Z,28.63
2022-10-11T22:36:00.564Z,29.35
2022-10-11T22:38:27.865Z,22.92
2022-10-11T22:40:54.832Z,31.27
2022-10-11T22:43:21.400Z,31.52
2022-10-11T22:45:48.024Z,27.67
2022-10-11T22:48:14.672Z,37.65
2022-10-11T22:50:41.531Z,28.50
2022-10-11T22:53:08.973Z,24.85
2022-10-11T22:55:35.586Z,30.40
2022-10-11T22:58:02.112Z,26.58
2022-10-11T23:00:28.702Z,31.38
2022-10-11T23:02:55.290Z,30.63
2022-10-11T23:05:22.137Z,28.00
2022-10-11T23:07:49.314Z,28.08
2022-10-11T23:10:16.754Z,32.83
2022-10-11T23:12:43.602Z,32.67
2022-10-11T23:15:11.230Z,27.90
2022-10-11T23:17:38.234Z,26.83
2022-10-11T23:20:05.875Z,31.08
2022-10-11T23:22:32.517Z,27.73
2022-10-11T23:24:59.023Z,30.98
2022-10-11T23:27:25.539Z,27.13
2022-10-11T23:29:52.046Z,36.95
2022-10-11T23:32:18.597Z,29.92
2022-10-11T23:34:45.732Z,36.25
2022-10-11T23:37:12.267Z,29.30
2022-10-11T23:39:38.795Z,32.25
2022-10-11T23:42:05.452Z,29.42
2022-10-11T23:44:32.021Z,29.20
2022-10-11T23:46:58.520Z,45.38
2022-10-11T23:49:25.155Z,37.35
2022-10-11T23:51:51.697Z,37.03
2022-10-11T23:54:18.223Z,37.95
2022-10-11T23:56:44.775Z,31.45
2022-10-11T23:59:11.311Z,31.90
